Moorslede, Belgium
Current Conditions -  °F | °C
As of 7:55 AM on Thursday 27 Nov 2014 (Local Time) from EBFN Reporting Station
Haze Haze  
Wind Chill: 44°   Ceiling: 200
Heat Index: 48°   Visibility: 1.1mi
Dew Point: 48°   Wind: 9mph
Humidity: 100%   Direction: 150°SSE
Pressure: 29.71"   Gusts: NA
Location:  50.89°N, 3.06°E
Report Text: EBFN 270655Z 15008KT 1800 BR BKN002 09/09 Q1006 AMB AMB
Loading
Personal Weather Stations






























Interactive Weather Map New forecast layout! Learn more

10-Day Weather Forecast

Advertisements
Track Severe Weather on mobile